createdAt,value
2024-02-12T00:00:18.901Z,6.8
2024-02-12T00:01:19.272Z,6.7
2024-02-12T00:02:19.779Z,6.7
2024-02-12T00:03:20.332Z,6.7
2024-02-12T00:04:20.567Z,6.7
2024-02-12T00:05:20.968Z,6.7
2024-02-12T00:06:21.417Z,6.7
2024-02-12T00:07:21.830Z,6.7
2024-02-12T00:08:22.449Z,6.7
2024-02-12T00:09:22.983Z,6.7
2024-02-12T00:10:23.173Z,6.7
2024-02-12T00:11:23.368Z,6.7
2024-02-12T00:12:23.647Z,6.7
2024-02-12T00:13:23.827Z,6.7
2024-02-12T00:14:24.111Z,6.7
2024-02-12T00:15:24.403Z,6.7
2024-02-12T00:16:24.595Z,6.7
2024-02-12T00:17:24.879Z,6.7
2024-02-12T00:18:25.328Z,6.7
2024-02-12T00:19:25.641Z,6.7
2024-02-12T00:20:25.963Z,6.7
2024-02-12T00:21:26.155Z,6.7
2024-02-12T00:22:26.328Z,6.7
2024-02-12T00:23:26.542Z,6.7
2024-02-12T00:24:26.813Z,6.7
2024-02-12T00:25:26.985Z,6.7
2024-02-12T00:26:28.073Z,6.7
2024-02-12T00:27:28.383Z,6.7
2024-02-12T00:28:28.538Z,6.7
2024-02-12T00:29:28.766Z,6.7
2024-02-12T00:30:29.228Z,6.7
2024-02-12T00:31:29.431Z,6.7
2024-02-12T00:32:29.727Z,6.7
2024-02-12T00:33:30.215Z,6.7
2024-02-12T00:34:30.577Z,6.7
2024-02-12T00:35:30.829Z,6.7
2024-02-12T00:36:31.012Z,6.7
2024-02-12T00:37:31.159Z,6.7
2024-02-12T00:38:31.411Z,6.7
2024-02-12T00:39:31.646Z,6.7
2024-02-12T00:40:31.848Z,6.7
2024-02-12T00:41:32.185Z,6.7
2024-02-12T00:42:32.469Z,6.7
2024-02-12T00:43:32.644Z,6.7
2024-02-12T00:44:32.903Z,6.7
2024-02-12T00:45:33.130Z,6.7
2024-02-12T00:46:33.280Z,6.7
2024-02-12T00:47:33.646Z,6.7
2024-02-12T00:48:34.418Z,6.7
2024-02-12T00:49:34.712Z,6.7
2024-02-12T00:50:34.976Z,6.7
2024-02-12T00:51:35.189Z,6.7
2024-02-12T00:52:35.359Z,6.7
2024-02-12T00:53:35.787Z,6.7
2024-02-12T00:54:36.175Z,6.7
2024-02-12T00:55:36.359Z,6.7
2024-02-12T00:56:36.598Z,6.7
2024-02-12T00:57:36.990Z,6.7
2024-02-12T00:58:37.207Z,6.7
2024-02-12T00:59:37.501Z,6.7
2024-02-12T01:00:37.710Z,6.3
2024-02-12T01:01:37.893Z,6.3
2024-02-12T01:02:38.175Z,6.3
2024-02-12T01:03:38.516Z,6.3
2024-02-12T01:04:38.714Z,6.3
2024-02-12T01:05:39.097Z,6.3
2024-02-12T01:06:39.483Z,6.3
2024-02-12T01:07:39.744Z,6.3
2024-02-12T01:08:42.540Z,6.3
2024-02-12T01:09:44.348Z,6.3
2024-02-12T01:10:44.520Z,6.3
2024-02-12T01:11:44.665Z,6.3
2024-02-12T01:12:44.864Z,6.3
2024-02-12T01:13:45.016Z,6.3
2024-02-12T01:14:45.190Z,6.3
2024-02-12T01:15:45.348Z,6.3
2024-02-12T01:16:45.501Z,6.3
2024-02-12T01:17:53.983Z,6.3
2024-02-12T01:19:10.148Z,6.3
2024-02-12T01:20:10.475Z,6.3
2024-02-12T01:21:10.735Z,6.3
2024-02-12T01:22:10.939Z,6.3
2024-02-12T01:23:11.196Z,6.3
2024-02-12T01:24:11.413Z,6.3
2024-02-12T01:25:11.558Z,6.3
2024-02-12T01:26:11.782Z,6.3
2024-02-12T01:27:12.014Z,6.3
2024-02-12T01:28:12.185Z,6.3
2024-02-12T01:29:12.402Z,6.3
2024-02-12T01:30:12.627Z,6.3
2024-02-12T01:31:12.780Z,6.3
2024-02-12T01:32:13.038Z,6.3
2024-02-12T01:33:13.921Z,6.3
2024-02-12T01:34:14.283Z,6.3
2024-02-12T01:35:14.652Z,6.3
2024-02-12T01:36:14.936Z,6.3
2024-02-12T01:37:15.117Z,6.3
2024-02-12T01:38:15.398Z,6.3
2024-02-12T01:39:15.963Z,6.3
2024-02-12T01:40:16.253Z,6.3
2024-02-12T01:41:16.562Z,6.3
2024-02-12T01:42:16.799Z,6.3
2024-02-12T01:43:16.948Z,6.3
2024-02-12T01:44:17.269Z,6.3
2024-02-12T01:45:17.899Z,6.3
2024-02-12T01:46:18.244Z,6.3
2024-02-12T01:47:25.859Z,6.3
2024-02-12T01:48:26.806Z,6.4
2024-02-12T01:49:27.845Z,6.4
2024-02-12T01:50:28.817Z,6.4
2024-02-12T01:51:29.580Z,6.4
2024-02-12T01:52:29.761Z,6.4
2024-02-12T01:53:29.979Z,6.4
2024-02-12T01:54:30.181Z,6.4
2024-02-12T01:55:30.667Z,6.4
2024-02-12T01:56:31.649Z,6.4
2024-02-12T01:57:31.934Z,6.4
2024-02-12T01:58:32.126Z,6.4
2024-02-12T01:59:32.383Z,6.4
2024-02-12T02:00:32.700Z,6.4
2024-02-12T02:01:32.965Z,6.4
2024-02-12T02:02:33.293Z,6.4
2024-02-12T02:03:33.669Z,6.4
2024-02-12T02:04:34.151Z,6.4
2024-02-12T02:05:34.808Z,6.4
2024-02-12T02:06:35.350Z,6.4
2024-02-12T02:07:35.681Z,6.4
2024-02-12T02:08:36.133Z,6.4
2024-02-12T02:09:36.360Z,6.4
2024-02-12T02:10:36.530Z,6.4
2024-02-12T02:11:36.776Z,6.4
2024-02-12T02:12:37.031Z,6.4
2024-02-12T02:13:37.176Z,6.4
2024-02-12T02:14:37.412Z,6.4
2024-02-12T02:15:37.701Z,6.4
2024-02-12T02:16:37.888Z,6.4
2024-02-12T02:17:38.385Z,6.4
2024-02-12T02:18:39.038Z,6.4
2024-02-12T02:19:39.472Z,6.4
2024-02-12T02:20:39.768Z,6.4
2024-02-12T02:21:39.985Z,6.4
2024-02-12T02:22:40.267Z,6.4
2024-02-12T02:23:40.730Z,6.4
2024-02-12T02:24:41.085Z,6.4
2024-02-12T02:25:41.268Z,6.4
2024-02-12T02:26:41.512Z,6.4
2024-02-12T02:27:41.780Z,6.4
2024-02-12T02:28:41.943Z,6.4
2024-02-12T02:29:42.176Z,6.4
2024-02-12T02:30:42.445Z,6.4
2024-02-12T02:31:42.614Z,6.4
2024-02-12T02:32:43.443Z,6.4
2024-02-12T02:33:45.404Z,6.4
2024-02-12T02:34:46.028Z,6.4
2024-02-12T02:35:46.566Z,6.4
2024-02-12T02:36:47.016Z,6.4
2024-02-12T02:37:47.348Z,6.4
2024-02-12T02:38:47.850Z,6.4
2024-02-12T02:39:48.177Z,6.4
2024-02-12T02:40:48.331Z,6.4
2024-02-12T02:41:48.493Z,6.4
2024-02-12T02:42:48.851Z,6.4
2024-02-12T02:43:49.039Z,6.4
2024-02-12T02:44:49.200Z,6.4
2024-02-12T02:45:49.350Z,6.4
2024-02-12T02:46:49.511Z,6.4
2024-02-12T02:47:49.821Z,6.4
2024-02-12T02:48:50.318Z,6.4
2024-02-12T02:49:50.861Z,6.4
2024-02-12T02:50:51.128Z,6.4
2024-02-12T02:51:51.284Z,6.4
2024-02-12T02:52:51.507Z,6.4
2024-02-12T02:53:51.695Z,6.4
2024-02-12T02:54:51.868Z,6.4
2024-02-12T02:55:52.143Z,6.4
2024-02-12T02:56:52.353Z,6.4
2024-02-12T02:57:52.545Z,6.4
2024-02-12T02:58:52.765Z,6.4
2024-02-12T02:59:53.009Z,6.4
2024-02-12T03:00:53.211Z,6.3
2024-02-12T03:01:53.698Z,6.3
2024-02-12T03:02:53.963Z,6.3
2024-02-12T03:03:54.190Z,6.3
2024-02-12T03:04:54.487Z,6.3
2024-02-12T03:05:54.889Z,6.3
2024-02-12T03:06:55.225Z,6.3
2024-02-12T03:07:55.503Z,6.3
2024-02-12T03:08:55.831Z,6.3
2024-02-12T03:09:55.971Z,6.3
2024-02-12T03:10:56.178Z,6.3
2024-02-12T03:11:56.413Z,6.3
2024-02-12T03:12:56.579Z,6.3
2024-02-12T03:13:56.859Z,6.3
2024-02-12T03:14:57.422Z,6.3
2024-02-12T03:15:57.557Z,6.3
2024-02-12T03:16:57.868Z,6.3
2024-02-12T03:17:58.314Z,6.3
2024-02-12T03:18:58.934Z,6.3
2024-02-12T03:19:59.456Z,6.3
2024-02-12T03:20:59.774Z,6.3
2024-02-12T03:21:59.948Z,6.3
2024-02-12T03:23:00.159Z,6.3
2024-02-12T03:24:00.457Z,6.3
2024-02-12T03:25:00.766Z,6.3
2024-02-12T03:26:01.032Z,6.3
2024-02-12T03:27:01.273Z,6.3
2024-02-12T03:28:01.469Z,6.3
2024-02-12T03:29:01.758Z,6.3
2024-02-12T03:30:02.098Z,6.3
2024-02-12T03:31:02.328Z,6.3
2024-02-12T03:32:02.536Z,6.3
2024-02-12T03:33:02.884Z,6.3
2024-02-12T03:34:03.151Z,6.3
2024-02-12T03:35:03.377Z,6.3
2024-02-12T03:36:03.645Z,6.3
2024-02-12T03:37:03.866Z,6.3
2024-02-12T03:38:04.096Z,6.3
2024-02-12T03:39:04.345Z,6.3
2024-02-12T03:40:04.540Z,6.3
2024-02-12T03:41:04.855Z,6.3
2024-02-12T03:42:05.069Z,6.3
2024-02-12T03:43:05.255Z,6.3
2024-02-12T03:44:05.482Z,6.3
2024-02-12T03:45:05.767Z,6.3
2024-02-12T03:46:05.922Z,6.3
2024-02-12T03:47:06.124Z,6.3
2024-02-12T03:48:06.450Z,6.3
2024-02-12T03:49:08.640Z,6.3
2024-02-12T03:50:08.996Z,6.3
2024-02-12T03:51:09.277Z,6.3
2024-02-12T03:52:09.432Z,6.3
2024-02-12T03:53:09.626Z,6.3
2024-02-12T03:54:09.831Z,6.3
2024-02-12T03:55:10.093Z,6.3
2024-02-12T03:56:10.358Z,6.3
2024-02-12T03:57:10.566Z,6.3
2024-02-12T03:58:10.730Z,6.3
2024-02-12T03:59:10.926Z,6.3
2024-02-12T04:00:11.122Z,6.3
2024-02-12T04:01:11.274Z,6.1
2024-02-12T04:02:11.615Z,6.1
2024-02-12T04:03:11.809Z,6.1
2024-02-12T04:04:12.034Z,6.1
2024-02-12T04:05:12.279Z,6.1
2024-02-12T04:06:12.553Z,6.1
2024-02-12T04:07:12.801Z,6.1
2024-02-12T04:08:13.111Z,6.1
2024-02-12T04:09:13.324Z,6.1
2024-02-12T04:10:13.503Z,6.1
2024-02-12T04:11:13.696Z,6.1
2024-02-12T04:12:13.925Z,6.1
2024-02-12T04:13:14.082Z,6.1
2024-02-12T04:14:14.306Z,6.1
2024-02-12T04:15:14.547Z,6.1
2024-02-12T04:16:14.701Z,6.1
2024-02-12T04:17:15.200Z,6.1
2024-02-12T04:18:15.908Z,6.1
2024-02-12T04:19:16.400Z,6.1
2024-02-12T04:20:17.000Z,6.1
2024-02-12T04:21:17.291Z,6.1
2024-02-12T04:22:17.778Z,6.1
2024-02-12T04:23:18.125Z,6.1
2024-02-12T04:24:18.314Z,6.1
2024-02-12T04:25:18.465Z,6.1
2024-02-12T04:26:18.750Z,6.1
2024-02-12T04:27:19.793Z,6.1
2024-02-12T04:28:19.984Z,6.1
2024-02-12T04:29:20.270Z,6.1
2024-02-12T04:30:20.514Z,6.1
2024-02-12T04:31:20.658Z,6.1
2024-02-12T04:32:20.872Z,6.1
2024-02-12T04:33:21.289Z,6.1
2024-02-12T04:34:21.827Z,6.1
2024-02-12T04:35:22.187Z,6.1
2024-02-12T04:36:22.412Z,6.1
2024-02-12T04:37:22.552Z,6.1
2024-02-12T04:38:22.798Z,6.1
2024-02-12T04:39:23.041Z,6.1
2024-02-12T04:40:23.199Z,6.1
2024-02-12T04:41:23.497Z,6.1
2024-02-12T04:42:23.831Z,6.1
2024-02-12T04:43:23.973Z,6.1
2024-02-12T04:44:24.202Z,6.1
2024-02-12T04:45:28.914Z,6.1
2024-02-12T04:46:29.225Z,6.2
2024-02-12T04:47:29.691Z,6.2
2024-02-12T04:48:30.156Z,6.2
2024-02-12T04:49:30.597Z,6.2
2024-02-12T04:50:30.927Z,6.2
2024-02-12T04:51:31.161Z,6.2
2024-02-12T04:52:31.316Z,6.2
2024-02-12T04:53:31.707Z,6.2
2024-02-12T04:54:31.936Z,6.2
2024-02-12T04:55:32.079Z,6.2
2024-02-12T04:56:32.343Z,6.2
2024-02-12T04:57:32.692Z,6.2
2024-02-12T04:58:32.857Z,6.2
2024-02-12T04:59:33.111Z,6.2
2024-02-12T05:00:33.634Z,6.3
2024-02-12T05:01:33.812Z,6.3
2024-02-12T05:02:34.274Z,6.3
2024-02-12T05:03:35.083Z,6.3
2024-02-12T05:04:35.699Z,6.3
2024-02-12T05:05:36.323Z,6.3
2024-02-12T05:06:36.816Z,6.3
2024-02-12T05:07:37.178Z,6.3
2024-02-12T05:08:37.730Z,6.3
2024-02-12T05:09:38.028Z,6.3
2024-02-12T05:10:38.210Z,6.3
2024-02-12T05:11:38.476Z,6.3
2024-02-12T05:12:38.716Z,6.3
2024-02-12T05:13:38.951Z,6.3
2024-02-12T05:14:39.332Z,6.3
2024-02-12T05:15:39.581Z,6.3
2024-02-12T05:16:39.737Z,6.3
2024-02-12T05:17:40.177Z,6.3
2024-02-12T05:18:40.702Z,6.3
2024-02-12T05:19:41.048Z,6.3
2024-02-12T05:20:41.333Z,6.3
2024-02-12T05:21:41.579Z,6.3
2024-02-12T05:22:41.752Z,6.3
2024-02-12T05:23:42.019Z,6.3
2024-02-12T05:24:42.301Z,6.3
2024-02-12T05:25:42.456Z,6.3
2024-02-12T05:26:42.669Z,6.3
2024-02-12T05:27:42.912Z,6.3
2024-02-12T05:28:43.087Z,6.3
2024-02-12T05:29:43.413Z,6.3
2024-02-12T05:30:43.804Z,6.3
2024-02-12T05:31:43.951Z,6.3
2024-02-12T05:32:44.348Z,6.3
2024-02-12T05:33:44.820Z,6.3
2024-02-12T05:34:45.262Z,6.3
2024-02-12T05:35:45.518Z,6.3
2024-02-12T05:36:45.813Z,6.3
2024-02-12T05:37:46.004Z,6.3
2024-02-12T05:38:46.172Z,6.3
2024-02-12T05:39:46.339Z,6.3
2024-02-12T05:40:46.543Z,6.3
2024-02-12T05:41:46.737Z,6.3
2024-02-12T05:42:46.889Z,6.3
2024-02-12T05:43:47.045Z,6.3
2024-02-12T05:44:47.291Z,6.3
2024-02-12T05:45:47.492Z,6.3
2024-02-12T05:46:47.660Z,6.3
2024-02-12T05:47:48.134Z,6.3
2024-02-12T05:48:49.052Z,6.3
2024-02-12T05:49:49.534Z,6.3
2024-02-12T05:50:49.687Z,6.3
2024-02-12T05:51:49.952Z,6.3
2024-02-12T05:52:50.107Z,6.3
2024-02-12T05:53:50.269Z,6.3
2024-02-12T05:54:50.449Z,6.3
2024-02-12T05:55:50.623Z,6.3
2024-02-12T05:56:50.836Z,6.3
2024-02-12T05:57:51.068Z,6.3
2024-02-12T05:58:51.217Z,6.3
2024-02-12T05:59:51.381Z,6.3
2024-02-12T06:00:51.696Z,6.3
2024-02-12T06:01:51.891Z,6.3
2024-02-12T06:02:52.057Z,6.3
2024-02-12T06:03:52.267Z,6.3
2024-02-12T06:04:52.728Z,6.3
2024-02-12T06:05:53.373Z,6.3
2024-02-12T06:06:54.102Z,6.3
2024-02-12T06:07:54.890Z,6.3
2024-02-12T06:08:55.549Z,6.3
2024-02-12T06:09:55.812Z,6.3
2024-02-12T06:10:56.084Z,6.3
2024-02-12T06:11:56.381Z,6.3
2024-02-12T06:12:56.528Z,6.3
2024-02-12T06:13:56.756Z,6.3
2024-02-12T06:14:56.991Z,6.3
2024-02-12T06:15:57.158Z,6.3
2024-02-12T06:16:57.366Z,6.3
2024-02-12T06:17:57.646Z,6.3
2024-02-12T06:18:57.990Z,6.3
2024-02-12T06:19:58.275Z,6.3
2024-02-12T06:20:58.491Z,6.3
2024-02-12T06:21:58.681Z,6.3
2024-02-12T06:22:58.951Z,6.3
2024-02-12T06:23:59.203Z,6.3
2024-02-12T06:24:59.488Z,6.3
2024-02-12T06:25:59.689Z,6.3
2024-02-12T06:26:59.935Z,6.3
2024-02-12T06:28:00.154Z,6.3
2024-02-12T06:29:00.345Z,6.3
2024-02-12T06:30:00.670Z,6.3
2024-02-12T06:31:00.875Z,6.3
2024-02-12T06:32:01.127Z,6.3
2024-02-12T06:33:01.550Z,6.3
2024-02-12T06:34:02.173Z,6.3
2024-02-12T06:35:02.752Z,6.3
2024-02-12T06:36:03.343Z,6.3
2024-02-12T06:37:03.889Z,6.3
2024-02-12T06:38:04.093Z,6.3
2024-02-12T06:39:04.319Z,6.3
2024-02-12T06:40:04.508Z,6.3
2024-02-12T06:41:04.830Z,6.3
2024-02-12T06:42:05.050Z,6.3
2024-02-12T06:43:05.204Z,6.3
2024-02-12T06:44:05.496Z,6.3
2024-02-12T06:45:05.763Z,6.3
2024-02-12T06:46:05.927Z,6.3
2024-02-12T06:47:06.158Z,6.3
2024-02-12T06:48:06.545Z,6.3
2024-02-12T06:49:06.861Z,6.3
2024-02-12T06:50:07.653Z,6.3
2024-02-12T06:51:07.893Z,6.3
2024-02-12T06:52:08.043Z,6.3
2024-02-12T06:53:08.337Z,6.3
2024-02-12T06:54:08.579Z,6.3
2024-02-12T06:55:08.754Z,6.3
2024-02-12T06:56:08.932Z,6.3
2024-02-12T06:57:09.240Z,6.3
2024-02-12T06:58:09.402Z,6.3
2024-02-12T06:59:09.646Z,6.3
2024-02-12T07:00:09.866Z,6.3
2024-02-12T07:01:10.074Z,6.4
2024-02-12T07:02:10.317Z,6.4
2024-02-12T07:03:10.518Z,6.4
2024-02-12T07:04:10.735Z,6.4
2024-02-12T07:05:10.943Z,6.4
2024-02-12T07:06:11.425Z,6.4
2024-02-12T07:07:11.771Z,6.4
2024-02-12T07:08:11.986Z,6.4
2024-02-12T07:09:12.189Z,6.4
2024-02-12T07:10:12.364Z,6.4
2024-02-12T07:11:12.593Z,6.4
2024-02-12T07:12:12.766Z,6.4
2024-02-12T07:13:13.014Z,6.4
2024-02-12T07:14:14.033Z,6.4
2024-02-12T07:15:14.201Z,6.4
2024-02-12T07:16:14.348Z,6.4
2024-02-12T07:17:14.556Z,6.4
2024-02-12T07:18:14.922Z,6.4
2024-02-12T07:19:15.503Z,6.4
2024-02-12T07:20:15.820Z,6.4
2024-02-12T07:21:16.170Z,6.4
2024-02-12T07:22:16.714Z,6.4
2024-02-12T07:23:17.080Z,6.4
2024-02-12T07:24:17.330Z,6.4
2024-02-12T07:25:17.618Z,6.4
2024-02-12T07:26:17.991Z,6.4
2024-02-12T07:27:18.236Z,6.4
2024-02-12T07:28:18.383Z,6.4
2024-02-12T07:29:18.727Z,6.4
2024-02-12T07:30:18.929Z,6.4
2024-02-12T07:31:19.093Z,6.4
2024-02-12T07:32:19.354Z,6.4
2024-02-12T07:33:19.763Z,6.4
2024-02-12T07:34:20.216Z,6.4
2024-02-12T07:35:20.528Z,6.4
2024-02-12T07:36:20.724Z,6.4
2024-02-12T07:37:21.086Z,6.4
2024-02-12T07:38:21.283Z,6.4
2024-02-12T07:39:21.499Z,6.4
2024-02-12T07:40:21.659Z,6.4
2024-02-12T07:41:21.853Z,6.4
2024-02-12T07:42:22.088Z,6.4
2024-02-12T07:43:22.236Z,6.4
2024-02-12T07:44:22.489Z,6.4
2024-02-12T07:45:22.689Z,6.4
2024-02-12T07:46:22.888Z,6.4
2024-02-12T07:47:23.432Z,6.4
2024-02-12T07:48:24.230Z,6.4
2024-02-12T07:49:24.683Z,6.4
2024-02-12T07:50:25.132Z,6.4
2024-02-12T07:51:26.586Z,6.4
2024-02-12T07:52:26.736Z,6.4
2024-02-12T07:53:27.124Z,6.4
2024-02-12T07:54:27.624Z,6.4
2024-02-12T07:55:27.974Z,6.4
2024-02-12T07:56:28.260Z,6.4
2024-02-12T07:57:28.455Z,6.4
2024-02-12T07:58:28.714Z,6.4
2024-02-12T07:59:29.009Z,6.4
2024-02-12T08:00:29.394Z,6.7
2024-02-12T08:01:29.726Z,6.7
2024-02-12T08:02:30.010Z,6.7
2024-02-12T08:03:30.548Z,6.7
2024-02-12T08:04:30.987Z,6.7
2024-02-12T08:05:31.312Z,6.7
2024-02-12T08:06:31.694Z,6.7
2024-02-12T08:07:52.117Z,6.7
2024-02-12T08:09:04.209Z,6.8
2024-02-12T08:10:05.490Z,6.8
2024-02-12T08:11:05.995Z,6.8
2024-02-12T08:12:06.243Z,6.8
2024-02-12T08:13:06.428Z,6.8
2024-02-12T08:14:06.677Z,6.8
2024-02-12T08:15:06.911Z,6.8
2024-02-12T08:16:07.081Z,6.8
2024-02-12T08:17:07.284Z,6.8
2024-02-12T08:18:08.404Z,6.8
2024-02-12T08:19:09.054Z,6.8
2024-02-12T08:20:09.789Z,6.8
2024-02-12T08:21:10.572Z,6.8
2024-02-12T08:22:10.936Z,6.8
2024-02-12T08:23:11.157Z,6.8
2024-02-12T08:24:11.404Z,6.8
2024-02-12T08:25:11.663Z,6.8
2024-02-12T08:26:11.869Z,6.8
2024-02-12T08:27:12.093Z,6.8
2024-02-12T08:28:12.251Z,6.8
2024-02-12T08:29:12.470Z,6.8
2024-02-12T08:30:12.668Z,6.8
2024-02-12T08:31:12.889Z,6.8
2024-02-12T08:32:13.174Z,6.8
2024-02-12T08:33:13.568Z,6.8
2024-02-12T08:34:13.833Z,6.8
2024-02-12T08:35:14.182Z,6.8
2024-02-12T08:36:14.537Z,6.8
2024-02-12T08:37:14.704Z,6.8
2024-02-12T08:38:14.960Z,6.8
2024-02-12T08:39:21.538Z,6.8
2024-02-12T08:40:23.605Z,7.4
2024-02-12T08:41:24.323Z,7.4
2024-02-12T08:42:25.354Z,7.4
2024-02-12T08:43:25.496Z,7.4
2024-02-12T08:44:25.788Z,7.4
2024-02-12T08:45:26.012Z,7.4
2024-02-12T08:46:26.162Z,7.4
2024-02-12T08:47:26.431Z,7.4
2024-02-12T08:48:26.771Z,7.4
2024-02-12T08:49:27.155Z,7.4
2024-02-12T08:50:27.515Z,7.4
2024-02-12T08:51:27.850Z,7.4
2024-02-12T08:52:28.013Z,7.4
2024-02-12T08:53:28.241Z,7.4
2024-02-12T08:54:28.444Z,7.4
2024-02-12T08:55:28.589Z,7.4
2024-02-12T08:56:28.864Z,7.4
2024-02-12T08:57:29.117Z,7.7
2024-02-12T08:58:29.285Z,7.7
2024-02-12T08:59:29.521Z,7.7
2024-02-12T09:00:29.891Z,7.7
2024-02-12T09:01:30.154Z,7.7
2024-02-12T09:02:30.362Z,7.7
2024-02-12T09:03:30.643Z,7.7
2024-02-12T09:04:30.852Z,7.7
2024-02-12T09:05:31.208Z,7.7
2024-02-12T09:06:31.579Z,7.7
2024-02-12T09:07:31.823Z,7.7
2024-02-12T09:08:32.050Z,7.7
2024-02-12T09:09:32.310Z,7.7
2024-02-12T09:10:32.460Z,7.7
2024-02-12T09:11:32.666Z,7.7
2024-02-12T09:12:51.194Z,7.7
2024-02-12T09:13:54.390Z,8
2024-02-12T09:14:54.564Z,8
2024-02-12T09:15:54.715Z,8
2024-02-12T09:16:54.910Z,8
2024-02-12T09:17:55.335Z,8
2024-02-12T09:18:55.971Z,8
2024-02-12T09:19:56.298Z,8
2024-02-12T09:20:56.563Z,8
2024-02-12T09:21:56.713Z,8
2024-02-12T09:22:56.942Z,8
2024-02-12T09:23:57.150Z,8
2024-02-12T09:24:57.299Z,8
2024-02-12T09:25:57.575Z,8
2024-02-12T09:26:57.852Z,8
2024-02-12T09:27:58.285Z,8
2024-02-12T09:28:58.601Z,8
2024-02-12T09:29:58.892Z,8
2024-02-12T09:30:59.286Z,8
2024-02-12T09:31:59.456Z,8
2024-02-12T09:32:59.943Z,8
2024-02-12T09:34:00.596Z,8
2024-02-12T09:35:01.032Z,8
2024-02-12T09:36:01.467Z,8
2024-02-12T09:37:01.657Z,8
2024-02-12T09:38:01.887Z,8
2024-02-12T09:39:02.351Z,8
2024-02-12T09:40:02.895Z,8
2024-02-12T09:41:03.202Z,8
2024-02-12T09:42:03.434Z,8
2024-02-12T09:43:03.569Z,8
2024-02-12T09:44:03.770Z,8
2024-02-12T09:45:04.020Z,8
2024-02-12T09:46:04.199Z,8
2024-02-12T09:47:04.442Z,8.7
2024-02-12T09:48:04.798Z,8.7
2024-02-12T09:49:05.081Z,8.7
2024-02-12T09:50:05.345Z,8.7
2024-02-12T09:51:05.576Z,8.7
2024-02-12T09:52:05.792Z,8.7
2024-02-12T09:53:05.999Z,8.7
2024-02-12T09:54:06.228Z,8.7
2024-02-12T09:55:06.406Z,8.7
2024-02-12T09:56:06.644Z,8.7
2024-02-12T09:57:06.857Z,8.7
2024-02-12T09:58:07.004Z,8.7
2024-02-12T09:59:07.241Z,8.7
2024-02-12T10:00:07.438Z,8.7
2024-02-12T10:01:07.705Z,8.7
2024-02-12T10:02:08.160Z,8.7
2024-02-12T10:03:08.439Z,8.7
2024-02-12T10:04:08.740Z,8.7
2024-02-12T10:05:09.201Z,8.7
2024-02-12T10:06:09.804Z,8.7
2024-02-12T10:07:10.243Z,8.7
2024-02-12T10:08:10.434Z,8.7
2024-02-12T10:09:10.638Z,8.7
2024-02-12T10:10:10.804Z,8.7
2024-02-12T10:11:11.087Z,8.7
2024-02-12T10:12:11.337Z,8.7
2024-02-12T10:13:11.480Z,8.7
2024-02-12T10:14:11.706Z,8.7
2024-02-12T10:15:11.967Z,8.7
2024-02-12T10:16:12.147Z,8.7
2024-02-12T10:17:12.436Z,8.7
2024-02-12T10:18:13.440Z,8.7
2024-02-12T10:19:14.386Z,8.7
2024-02-12T10:20:14.657Z,8.7
2024-02-12T10:21:15.436Z,8.7
2024-02-12T10:22:16.464Z,8.7
2024-02-12T10:23:17.111Z,8.7
2024-02-12T10:24:17.861Z,8.7
2024-02-12T10:25:18.065Z,8.7
2024-02-12T10:26:18.362Z,8.7
2024-02-12T10:27:18.664Z,8.7
2024-02-12T10:28:18.983Z,8.7
2024-02-12T10:29:19.225Z,8.7
2024-02-12T10:30:19.657Z,8.7
2024-02-12T10:31:19.829Z,8.7
2024-02-12T10:32:20.051Z,8.7
2024-02-12T10:33:20.596Z,8.7
2024-02-12T10:34:21.348Z,8.7
2024-02-12T10:35:21.941Z,8.7
2024-02-12T10:36:22.304Z,8.7
2024-02-12T10:37:22.459Z,8.7
2024-02-12T10:38:22.690Z,8.7
2024-02-12T10:39:22.972Z,8.7
2024-02-12T10:40:23.107Z,8.7
2024-02-12T10:41:23.311Z,8.7
2024-02-12T10:42:23.506Z,8.7
2024-02-12T10:43:23.665Z,8.7
2024-02-12T10:44:23.932Z,8.7
2024-02-12T10:45:24.133Z,8.7
2024-02-12T10:46:24.305Z,9.1
2024-02-12T10:47:24.531Z,9.1
2024-02-12T10:48:25.029Z,9.1
2024-02-12T10:49:25.353Z,9.1
2024-02-12T10:50:25.846Z,9.1
2024-02-12T10:51:26.047Z,9.1
2024-02-12T10:52:26.189Z,9.1
2024-02-12T10:53:26.389Z,9.1
2024-02-12T10:54:26.583Z,9.1
2024-02-12T10:55:26.814Z,9.1
2024-02-12T10:56:27.065Z,9.1
2024-02-12T10:57:27.546Z,9.1
2024-02-12T10:58:27.791Z,9.1
2024-02-12T10:59:27.975Z,9.1
2024-02-12T11:00:28.316Z,9.1
2024-02-12T11:01:28.821Z,9.1
2024-02-12T11:02:29.047Z,9.1
2024-02-12T11:03:29.335Z,9.1
2024-02-12T11:04:29.557Z,9.1
2024-02-12T11:05:29.928Z,9.1
2024-02-12T11:06:30.276Z,9.1
2024-02-12T11:07:30.519Z,9.1
2024-02-12T11:08:30.883Z,9.1
2024-02-12T11:09:31.117Z,9.1
2024-02-12T11:10:31.290Z,9.1
2024-02-12T11:11:31.608Z,9.1
2024-02-12T11:12:31.886Z,9.1
2024-02-12T11:13:32.044Z,9.1
2024-02-12T11:14:32.284Z,9.1
2024-02-12T11:15:32.529Z,9.1
2024-02-12T11:16:32.715Z,9.1
2024-02-12T11:17:33.086Z,9.1
2024-02-12T11:18:33.508Z,9.1
2024-02-12T11:19:33.866Z,9.1
2024-02-12T11:20:34.332Z,9.1
2024-02-12T11:21:34.538Z,9.1
2024-02-12T11:22:34.671Z,9.1
2024-02-12T11:23:35.013Z,9.1
2024-02-12T11:24:35.245Z,9.1
2024-02-12T11:25:53.829Z,9.1
2024-02-12T11:26:56.768Z,9.6
2024-02-12T11:27:57.076Z,9.6
2024-02-12T11:28:57.248Z,9.6
2024-02-12T11:29:57.558Z,9.6
2024-02-12T11:30:57.729Z,9.6
2024-02-12T11:31:58.047Z,9.6
2024-02-12T11:32:58.815Z,9.6
2024-02-12T11:33:59.523Z,9.6
2024-02-12T11:34:59.935Z,9.6
2024-02-12T11:36:00.153Z,9.6
2024-02-12T11:37:00.382Z,9.6
2024-02-12T11:38:00.750Z,9.6
2024-02-12T11:39:01.183Z,9.6
2024-02-12T11:40:01.366Z,9.6
2024-02-12T11:41:01.627Z,9.6
2024-02-12T11:42:01.898Z,9.6
2024-02-12T11:43:02.080Z,9.6
2024-02-12T11:44:02.428Z,9.6
2024-02-12T11:45:02.694Z,9.6
2024-02-12T11:46:02.864Z,9.6
2024-02-12T11:47:03.108Z,9.5
2024-02-12T11:48:07.782Z,9.5
2024-02-12T11:49:09.238Z,9.6
2024-02-12T11:50:09.725Z,9.6
2024-02-12T11:51:10.132Z,9.6
2024-02-12T11:52:10.277Z,9.6
2024-02-12T11:53:13.858Z,9.6
2024-02-12T11:54:14.769Z,9.89
2024-02-12T11:55:15.019Z,9.89
2024-02-12T11:56:15.341Z,9.89
2024-02-12T11:57:15.654Z,9.89
2024-02-12T11:58:15.793Z,9.89
2024-02-12T11:59:16.416Z,9.89
2024-02-12T12:00:16.704Z,9.89
2024-02-12T12:01:16.908Z,10.5
2024-02-12T12:02:17.141Z,10.5
2024-02-12T12:03:17.621Z,10.5
2024-02-12T12:04:17.905Z,10.5
2024-02-12T12:05:18.333Z,10.5
2024-02-12T12:06:19.042Z,10.5
2024-02-12T12:07:19.515Z,10.5
2024-02-12T12:08:19.710Z,10.5
2024-02-12T12:09:19.946Z,10.5
2024-02-12T12:10:20.105Z,10.5
2024-02-12T12:11:20.358Z,10.5
2024-02-12T12:12:20.581Z,10.5
2024-02-12T12:13:20.775Z,10.5
2024-02-12T12:14:20.954Z,10.5
2024-02-12T12:15:21.140Z,10.5
2024-02-12T12:16:21.318Z,11.5
2024-02-12T12:17:33.630Z,11.5
2024-02-12T12:18:37.989Z,11.6
2024-02-12T12:19:38.734Z,11.6
2024-02-12T12:20:39.514Z,11.6
2024-02-12T12:21:39.738Z,11.6
2024-02-12T12:22:39.928Z,11.6
2024-02-12T12:23:40.503Z,11.6
2024-02-12T12:24:40.794Z,11.6
2024-02-12T12:25:41.013Z,11.6
2024-02-12T12:26:41.233Z,11.6
2024-02-12T12:27:41.492Z,11.6
2024-02-12T12:28:41.790Z,11.6
2024-02-12T12:29:42.018Z,11.6
2024-02-12T12:30:42.194Z,11.6
2024-02-12T12:31:42.346Z,11.6
2024-02-12T12:32:42.692Z,11.6
2024-02-12T12:33:43.109Z,11.6
2024-02-12T12:34:43.390Z,11.6
2024-02-12T12:35:43.597Z,11.6
2024-02-12T12:36:43.835Z,11.6
2024-02-12T12:37:43.997Z,11.6
2024-02-12T12:38:44.212Z,11.6
2024-02-12T12:39:44.431Z,11.6
2024-02-12T12:40:44.599Z,11.6
2024-02-12T12:41:44.826Z,11.6
2024-02-12T12:42:45.107Z,11.6
2024-02-12T12:43:45.267Z,11.6
2024-02-12T12:44:45.560Z,11.6
2024-02-12T12:45:45.827Z,11.6
2024-02-12T12:46:46.014Z,11.6
2024-02-12T12:47:47.089Z,11.6
2024-02-12T12:48:47.883Z,11.6
2024-02-12T12:49:48.401Z,11.6
2024-02-12T12:51:01.061Z,11.6
2024-02-12T12:52:02.346Z,12.1
2024-02-12T12:53:02.590Z,12.1
2024-02-12T12:54:02.905Z,12.1
2024-02-12T12:55:03.110Z,12.1
2024-02-12T12:56:03.450Z,12.1
2024-02-12T12:57:07.936Z,12.1
2024-02-12T12:58:08.398Z,12.1
2024-02-12T12:59:08.768Z,12.1
2024-02-12T13:00:09.149Z,12.1
2024-02-12T13:01:12.894Z,12.1
2024-02-12T13:02:15.297Z,12
2024-02-12T13:03:15.587Z,12
2024-02-12T13:04:15.960Z,12
2024-02-12T13:05:16.298Z,12
2024-02-12T13:06:16.614Z,12
2024-02-12T13:07:17.070Z,12
2024-02-12T13:08:22.582Z,12
2024-02-12T13:09:23.004Z,12
2024-02-12T13:10:23.151Z,12
2024-02-12T13:11:23.439Z,12
2024-02-12T13:12:23.686Z,12
2024-02-12T13:13:23.851Z,12
2024-02-12T13:14:24.282Z,12
2024-02-12T13:15:24.844Z,12
2024-02-12T13:16:25.181Z,12.1
2024-02-12T13:17:25.580Z,12.1
2024-02-12T13:18:26.018Z,12.1
2024-02-12T13:19:26.302Z,12.1
2024-02-12T13:20:26.633Z,12.1
2024-02-12T13:21:26.957Z,12.1
2024-02-12T13:22:27.127Z,12.1
2024-02-12T13:23:27.581Z,12.1
2024-02-12T13:24:28.050Z,12.1
2024-02-12T13:25:28.220Z,12.1
2024-02-12T13:26:28.479Z,12.1
2024-02-12T13:27:28.705Z,12.1
2024-02-12T13:28:28.868Z,12.1
2024-02-12T13:29:29.104Z,12.1
2024-02-12T13:30:29.373Z,12.1
2024-02-12T13:31:29.761Z,12.1
2024-02-12T13:32:30.493Z,12.1
2024-02-12T13:33:31.036Z,12.1
2024-02-12T13:34:31.648Z,12.1
2024-02-12T13:35:32.038Z,12.1
2024-02-12T13:36:32.395Z,12.1
2024-02-12T13:37:32.734Z,12.1
2024-02-12T13:38:33.008Z,12.1
2024-02-12T13:39:33.294Z,12.1
2024-02-12T13:40:33.466Z,12.1
2024-02-12T13:41:33.680Z,12.1
2024-02-12T13:42:33.967Z,12.1
2024-02-12T13:43:34.120Z,12.1
2024-02-12T13:44:34.347Z,12.1
2024-02-12T13:45:34.844Z,12.1
2024-02-12T13:46:38.566Z,12.1
2024-02-12T13:47:39.571Z,11.5
2024-02-12T13:48:40.114Z,11.5
2024-02-12T13:49:40.703Z,11.5
2024-02-12T13:50:41.224Z,11.5
2024-02-12T13:51:41.481Z,11.5
2024-02-12T13:52:49.325Z,11.5